Time;durP1;ratioP1;P1;durP2;ratioP2;P2;SDS_P1;SDS_P2;PMS_P1;PMS_P2;Temp;Humidity;BMP_temperature;BMP_pressure;BME280_temperature;BME280_humidity;BME280_pressure;Samples;Min_cycle;Max_cycle;Signal;HPM_P1;HPM_P2
2021/09/20 00:01:35;;;;;;;10.10;4.88;;;;;;;13.29;73.43;101820.94;5035563;28;20088;-66
2021/09/20 00:04:00;;;;;;;8.93;5.30;;;;;;;13.17;73.87;101820.56;5017836;28;20537;-66
2021/09/20 00:06:26;;;;;;;10.88;5.00;;;;;;;13.16;73.90;101823.34;5035063;28;20380;-66
2021/09/20 00:08:51;;;;;;;11.32;5.20;;;;;;;13.12;73.91;101824.66;5035130;28;20469;-66
2021/09/20 00:11:17;;;;;;;8.52;5.03;;;;;;;13.07;74.52;101826.03;5035659;28;20033;-66
2021/09/20 00:13:43;;;;;;;8.13;5.10;;;;;;;13.10;74.34;101825.66;5035382;28;20025;-67
2021/09/20 00:16:08;;;;;;;8.27;5.70;;;;;;;13.13;74.25;101828.91;5035231;28;20028;-67
2021/09/20 00:18:34;;;;;;;8.55;4.93;;;;;;;13.13;74.01;101826.31;5017496;28;20186;-68
2021/09/20 00:20:59;;;;;;;7.78;5.10;;;;;;;13.14;74.25;101828.72;5035297;28;20385;-67
2021/09/20 00:23:24;;;;;;;7.32;5.30;;;;;;;13.07;74.41;101826.03;5035452;28;20115;-67
2021/09/20 00:25:50;;;;;;;9.77;5.70;;;;;;;13.04;74.68;101839.34;5035181;28;20026;-67
2021/09/20 00:28:16;;;;;;;8.05;5.40;;;;;;;13.17;73.95;101835.34;5034909;28;20022;-67
2021/09/20 00:30:41;;;;;;;8.02;5.43;;;;;;;13.17;74.28;101835.34;5034718;28;20431;-67
2021/09/20 00:33:08;;;;;;;9.98;5.40;;;;;;;13.22;73.85;101844.19;5034629;28;20026;-67
2021/09/20 00:35:33;;;;;;;8.23;4.93;;;;;;;13.39;73.49;101844.88;5034599;28;20048;-67
2021/09/20 00:37:59;;;;;;;10.32;5.22;;;;;;;13.24;73.46;101844.84;5034633;28;20021;-67
2021/09/20 00:40:24;;;;;;;9.32;5.75;;;;;;;13.16;73.39;101851.91;5034317;28;20037;-67
2021/09/20 00:42:49;;;;;;;9.50;5.30;;;;;;;13.00;73.98;101845.88;5034082;28;20539;-67
2021/09/20 00:45:15;;;;;;;9.32;5.68;;;;;;;13.15;73.41;101851.09;5034377;28;20025;-67
2021/09/20 00:47:41;;;;;;;8.05;5.22;;;;;;;13.18;73.07;101842.94;5034300;28;20025;-67
2021/09/20 00:50:07;;;;;;;7.30;5.10;;;;;;;12.94;74.32;101843.19;5034302;28;20032;-68
2021/09/20 00:52:32;;;;;;;7.57;5.22;;;;;;;12.66;74.69;101835.97;5034312;28;20033;-67
2021/09/20 00:54:57;;;;;;;8.20;5.35;;;;;;;12.69;74.97;101842.56;5033932;28;20104;-67
2021/09/20 00:57:22;;;;;;;9.40;5.38;;;;;;;12.72;74.86;101839.66;5034190;28;20049;-67
2021/09/20 00:59:48;;;;;;;9.00;5.10;;;;;;;12.87;73.65;101838.69;5034108;28;20061;-67
2021/09/20 01:02:14;;;;;;;9.10;5.47;;;;;;;12.73;74.08;101841.25;5016300;28;20033;-67
2021/09/20 01:04:39;;;;;;;10.48;6.03;;;;;;;12.77;73.68;101843.31;5034001;28;20095;-67
2021/09/20 01:07:04;;;;;;;9.68;5.60;;;;;;;12.71;73.91;101845.81;5033899;28;20033;-67
2021/09/20 01:09:29;;;;;;;8.38;5.15;;;;;;;12.59;74.44;101848.81;5016059;28;20423;-67
2021/09/20 01:11:55;;;;;;;12.23;5.53;;;;;;;12.68;74.20;101843.56;5016121;28;20129;-68
2021/09/20 01:14:20;;;;;;;9.48;5.70;;;;;;;12.74;73.95;101848.84;5033897;28;20025;-68
2021/09/20 01:16:46;;;;;;;13.65;5.75;;;;;;;12.69;74.30;101856.38;5033762;28;20033;-67
2021/09/20 01:19:11;;;;;;;9.35;5.57;;;;;;;12.67;74.31;101854.94;5033739;28;20491;-67
2021/09/20 01:21:37;;;;;;;12.00;5.45;;;;;;;12.61;74.03;101864.22;5033769;28;20032;-67
2021/09/20 01:24:03;;;;;;;9.38;5.65;;;;;;;12.44;74.22;101847.97;5033618;28;20535;-67
2021/09/20 01:26:28;;;;;;;8.98;5.53;;;;;;;12.48;74.54;101851.81;5033599;28;20424;-67
2021/09/20 01:28:54;;;;;;;8.18;5.45;;;;;;;12.38;75.13;101862.41;5033478;28;20060;-67
2021/09/20 01:31:20;;;;;;;8.75;5.43;;;;;;;12.41;74.73;101861.28;5033432;28;20021;-67
2021/09/20 01:33:45;;;;;;;11.23;5.45;;;;;;;12.41;74.67;101859.47;5033359;28;20044;-67
2021/09/20 01:36:10;;;;;;;9.40;5.95;;;;;;;12.40;74.35;101862.25;5033524;28;20076;-67
2021/09/20 01:38:36;;;;;;;10.52;5.60;;;;;;;12.36;74.33;101859.19;5033353;28;20376;-67
2021/09/20 01:41:01;;;;;;;9.85;5.95;;;;;;;12.31;74.33;101852.91;5033363;28;20036;-67
2021/09/20 01:43:26;;;;;;;9.98;5.80;;;;;;;12.20;74.84;101856.72;5033310;28;20048;-67
2021/09/20 01:45:52;;;;;;;11.05;5.65;;;;;;;12.27;74.88;101856.81;5033312;28;20033;-67
2021/09/20 01:48:18;;;;;;;9.10;5.50;;;;;;;12.09;75.07;101850.13;5033165;28;20055;-67
2021/09/20 01:54:06;;;;;;;9.32;5.80;;;;;;;12.14;75.34;101847.00;5032872;28;20064;-67
2021/09/20 01:56:32;;;;;;;7.95;5.47;;;;;;;12.10;74.64;101854.31;5032933;28;20132;-67
2021/09/20 01:58:58;;;;;;;8.02;5.32;;;;;;;11.95;75.02;101848.25;5033391;28;20026;-66
2021/09/20 02:01:23;;;;;;;10.48;5.75;;;;;;;11.86;75.60;101846.69;5033733;28;20028;-66
2021/09/20 02:03:50;;;;;;;7.82;5.82;;;;;;;11.78;75.92;101847.50;5033373;28;20395;-66
2021/09/20 02:06:16;;;;;;;8.93;5.68;;;;;;;11.72;76.46;101850.75;5033398;28;20027;-66
2021/09/20 02:08:41;;;;;;;10.68;5.93;;;;;;;11.77;75.93;101842.47;5033299;28;20025;-66
2021/09/20 02:11:07;;;;;;;10.73;5.47;;;;;;;11.70;76.52;101845.72;5033638;28;20486;-67
2021/09/20 02:13:33;;;;;;;8.77;5.90;;;;;;;11.72;76.18;101843.78;5033582;28;20021;-67
2021/09/20 02:15:58;;;;;;;10.05;5.60;;;;;;;11.67;76.10;101855.63;5033237;28;20021;-66
2021/09/20 02:18:23;;;;;;;9.90;5.55;;;;;;;11.45;76.93;101849.38;5033280;28;20025;-66
2021/09/20 02:20:48;;;;;;;8.45;5.80;;;;;;;11.48;77.03;101846.47;5033430;28;20029;-66
2021/09/20 02:23:14;;;;;;;9.48;5.88;;;;;;;11.47;77.25;101855.22;5015516;28;20033;-66
2021/09/20 02:25:40;;;;;;;8.70;6.05;;;;;;;11.52;76.78;101858.09;5033086;28;20495;-66
2021/09/20 02:28:06;;;;;;;10.00;5.60;;;;;;;11.50;76.45;101855.66;5015223;28;20036;-66
2021/09/20 02:30:31;;;;;;;9.88;6.10;;;;;;;11.47;76.99;101855.22;5033081;28;20029;-66
2021/09/20 02:32:57;;;;;;;10.90;5.95;;;;;;;11.39;77.25;101865.56;5015361;28;20052;-66
2021/09/20 02:35:22;;;;;;;9.60;6.03;;;;;;;11.50;76.81;101865.22;5033075;28;20369;-66
2021/09/20 02:37:47;;;;;;;8.38;5.38;;;;;;;11.32;77.72;101880.97;5033045;28;20101;-66
2021/09/20 02:40:13;;;;;;;10.57;5.93;;;;;;;11.40;77.45;101872.38;5033075;28;20380;-66
2021/09/20 02:42:38;;;;;;;9.70;6.00;;;;;;;11.35;77.72;101872.88;5032996;28;20034;-66
2021/09/20 02:45:06;;;;;;;9.45;5.25;;;;;;;11.39;77.34;101878.50;5033016;28;20088;-66
2021/09/20 02:47:32;;;;;;;8.77;5.72;;;;;;;11.41;77.24;101876.59;5015642;28;20380;-66
2021/09/20 02:49:57;;;;;;;9.63;5.82;;;;;;;11.29;77.58;101873.53;5032949;28;20025;-66
2021/09/20 02:52:23;;;;;;;10.48;6.20;;;;;;;11.24;77.16;101865.44;5015006;28;20542;-66
2021/09/20 02:54:48;;;;;;;9.30;5.53;;;;;;;11.32;77.28;101878.38;5015034;28;20024;-67
2021/09/20 02:57:13;;;;;;;8.52;5.63;;;;;;;11.27;77.40;101888.41;5033405;28;20099;-67
2021/09/20 02:59:38;;;;;;;11.10;6.35;;;;;;;11.27;77.31;101886.63;5032858;28;20025;-66
2021/09/20 03:02:03;;;;;;;8.38;5.38;;;;;;;11.29;77.11;101886.47;5033347;28;20026;-67
2021/09/20 03:04:29;;;;;;;9.15;5.93;;;;;;;11.13;77.34;101887.28;5015497;28;20027;-66
2021/09/20 03:06:54;;;;;;;10.77;5.65;;;;;;;11.25;77.11;101891.19;5018836;28;20329;-66
2021/09/20 03:09:19;;;;;;;9.85;6.10;;;;;;;11.29;77.11;101895.03;5018682;28;20049;-66
2021/09/20 03:11:44;;;;;;;11.63;6.47;;;;;;;11.29;76.96;101896.81;5036524;28;20056;-66
2021/09/20 03:14:10;;;;;;;13.38;5.97;;;;;;;11.27;76.97;101891.78;5036510;28;20464;-66
2021/09/20 03:16:35;;;;;;;9.18;5.63;;;;;;;11.34;76.82;101897.16;5018596;28;20025;-66
2021/09/20 03:19:00;;;;;;;10.70;5.50;;;;;;;11.43;76.70;101897.94;5036870;28;20022;-67
2021/09/20 03:21:26;;;;;;;10.07;6.00;;;;;;;11.52;76.49;101907.28;5018586;28;20028;-67
2021/09/20 03:23:52;;;;;;;8.90;5.97;;;;;;;11.49;76.46;101905.84;5036369;28;20380;-66
2021/09/20 03:26:17;;;;;;;10.07;5.82;;;;;;;11.29;77.20;101913.16;5036194;28;20416;-67
2021/09/20 03:28:43;;;;;;;9.52;6.03;;;;;;;11.34;77.00;101911.88;5018360;28;20038;-66
2021/09/20 03:31:08;;;;;;;10.43;6.22;;;;;;;11.25;77.51;101908.47;5036192;28;20025;-66
2021/09/20 03:33:33;;;;;;;8.23;5.82;;;;;;;11.29;77.71;101914.94;5036106;28;20483;-66
2021/09/20 03:35:58;;;;;;;10.35;6.03;;;;;;;11.27;77.84;101915.09;5018309;28;20087;-66
2021/09/20 03:38:24;;;;;;;9.18;5.95;;;;;;;11.33;77.55;101916.22;5036009;28;20022;-66
2021/09/20 03:40:49;;;;;;;10.65;6.53;;;;;;;11.33;77.14;101918.78;5035942;28;20076;-67
2021/09/20 03:43:15;;;;;;;13.68;6.50;;;;;;;11.40;77.19;101921.56;5036258;28;20415;-66
2021/09/20 03:45:40;;;;;;;8.45;5.90;;;;;;;11.38;76.86;101926.09;5035873;28;20434;-66
2021/09/20 03:48:05;;;;;;;9.20;5.88;;;;;;;11.53;76.95;101930.41;5036021;28;20029;-66
2021/09/20 03:50:30;;;;;;;10.07;6.43;;;;;;;11.50;76.93;101922.16;5035844;28;20032;-66
2021/09/20 03:52:56;;;;;;;9.20;6.00;;;;;;;11.58;76.57;101932.53;5035795;28;20436;-66
2021/09/20 03:55:21;;;;;;;10.25;6.40;;;;;;;11.65;75.98;101933.50;5018264;28;20376;-67
2021/09/20 03:57:46;;;;;;;11.70;6.15;;;;;;;11.67;75.91;101930.72;5017890;28;20025;-66
2021/09/20 04:00:13;;;;;;;11.43;6.18;;;;;;;11.68;76.23;101934.91;5035629;28;20021;-67
2021/09/20 04:02:38;;;;;;;9.75;5.90;;;;;;;11.68;75.66;101932.31;5035640;28;20033;-66
2021/09/20 04:05:04;;;;;;;11.15;5.80;;;;;;;11.71;75.63;101932.81;5035554;28;20025;-67
2021/09/20 04:07:30;;;;;;;8.18;5.88;;;;;;;11.79;75.84;101934.56;5017733;28;20472;-66
2021/09/20 04:09:55;;;;;;;12.02;6.57;;;;;;;11.69;75.31;101932.16;5017520;28;20025;-66
2021/09/20 04:12:20;;;;;;;9.13;6.47;;;;;;;11.81;75.37;101932.63;5035368;28;20502;-66
2021/09/20 04:14:45;;;;;;;9.27;6.35;;;;;;;11.75;75.50;101939.28;5035596;28;20022;-66
2021/09/20 04:17:11;;;;;;;14.10;7.00;;;;;;;11.60;75.67;101933.16;5034624;28;20021;-67
2021/09/20 04:19:36;;;;;;;11.52;6.40;;;;;;;11.65;75.75;101941.25;5035576;28;20112;-66
2021/09/20 04:22:03;;;;;;;9.85;6.57;;;;;;;11.78;74.97;101939.91;5035190;28;20017;-67
2021/09/20 04:24:28;;;;;;;13.43;6.90;;;;;;;11.71;75.60;101944.97;5035080;28;20527;-67
2021/09/20 04:26:53;;;;;;;11.10;7.00;;;;;;;11.71;75.38;101950.16;5035149;28;20057;-67
2021/09/20 04:29:19;;;;;;;12.48;7.13;;;;;;;11.61;75.58;101960.66;5034901;28;20384;-67
2021/09/20 04:31:44;;;;;;;13.20;7.22;;;;;;;11.59;75.62;101949.66;5035003;28;20040;-67
2021/09/20 04:34:09;;;;;;;13.57;7.28;;;;;;;11.47;75.55;101946.59;5017252;28;20045;-67
2021/09/20 04:36:34;;;;;;;12.07;7.47;;;;;;;11.43;76.11;101960.84;5017133;28;20036;-67
2021/09/20 04:39:00;;;;;;;12.45;7.90;;;;;;;11.62;75.62;101962.28;5034884;28;20091;-67
2021/09/20 04:41:25;;;;;;;12.40;7.50;;;;;;;11.58;75.73;101966.16;5034888;28;20026;-67
2021/09/20 04:43:50;;;;;;;15.00;8.18;;;;;;;11.60;75.56;101961.66;5034902;28;20025;-67
2021/09/20 04:46:15;;;;;;;15.65;8.77;;;;;;;11.62;75.51;101961.47;5034712;28;20117;-67
2021/09/20 04:48:41;;;;;;;12.73;7.95;;;;;;;11.49;75.85;101965.38;5034620;28;20025;-67
2021/09/20 04:51:06;;;;;;;12.73;7.97;;;;;;;11.34;76.17;101969.59;5035166;28;20021;-67
2021/09/20 04:53:31;;;;;;;15.68;8.20;;;;;;;11.21;76.76;101972.66;5034599;28;20087;-66
2021/09/20 04:55:56;;;;;;;16.60;7.57;;;;;;;11.22;76.60;101976.88;5034328;28;20044;-66
2021/09/20 04:58:22;;;;;;;14.43;8.20;;;;;;;11.24;76.69;101974.94;5034603;28;20032;-66
2021/09/20 05:00:47;;;;;;;12.98;8.18;;;;;;;11.26;76.88;101975.59;5034523;28;20037;-66
2021/09/20 05:03:12;;;;;;;14.43;7.70;;;;;;;11.32;76.83;101978.50;5034950;28;20053;-68
2021/09/20 05:05:38;;;;;;;13.48;7.80;;;;;;;11.18;77.07;101975.56;5034881;28;20453;-67
2021/09/20 05:08:03;;;;;;;11.90;7.85;;;;;;;11.18;77.34;101980.75;5016425;28;20029;-66
2021/09/20 05:10:29;;;;;;;14.57;8.15;;;;;;;11.21;77.07;101985.59;5034311;28;20060;-66
2021/09/20 05:12:54;;;;;;;13.38;8.65;;;;;;;11.14;77.24;101991.59;5034272;28;20095;-67
2021/09/20 05:15:20;;;;;;;14.73;8.25;;;;;;;10.95;77.96;101984.94;5034585;28;20108;-67
2021/09/20 05:17:45;;;;;;;15.30;8.57;;;;;;;10.89;78.20;101995.94;5016570;28;20017;-68
2021/09/20 05:20:13;;;;;;;18.77;8.63;;;;;;;10.90;77.97;101995.75;5034119;28;20061;-68
2021/09/20 05:22:38;;;;;;;14.00;8.02;;;;;;;10.79;78.62;102001.25;5016213;28;20076;-68
2021/09/20 05:25:05;;;;;;;15.02;8.38;;;;;;;10.96;78.35;102004.66;5034088;28;20025;-68
2021/09/20 05:27:31;;;;;;;13.88;8.32;;;;;;;10.91;78.35;102002.56;5033724;28;20397;-68
2021/09/20 05:29:57;;;;;;;15.50;8.57;;;;;;;10.99;78.08;102006.91;5033196;28;20032;-68
2021/09/20 05:32:23;;;;;;;12.80;7.90;;;;;;;10.96;77.86;102009.81;5033916;28;20486;-68
2021/09/20 05:34:48;;;;;;;15.00;8.15;;;;;;;11.09;77.38;101999.03;5033784;28;20026;-68
2021/09/20 05:37:13;;;;;;;13.07;8.73;;;;;;;11.03;77.72;102003.88;5033775;28;20108;-68
2021/09/20 05:39:39;;;;;;;13.82;8.35;;;;;;;11.09;77.61;102004.19;5034248;28;20029;-68
2021/09/20 05:42:04;;;;;;;16.27;8.38;;;;;;;11.15;77.67;102004.38;5034244;28;20609;-68
2021/09/20 05:44:29;;;;;;;13.70;8.13;;;;;;;11.18;77.54;102013.59;5033728;28;20017;-68
2021/09/20 05:46:55;;;;;;;12.93;7.93;;;;;;;11.18;77.74;102016.97;5033583;28;20037;-68
2021/09/20 05:49:20;;;;;;;14.20;8.35;;;;;;;11.23;77.53;102013.91;5033538;28;20021;-68
2021/09/20 05:51:45;;;;;;;13.95;8.68;;;;;;;11.30;77.28;102017.47;5033518;28;20029;-68
2021/09/20 05:54:11;;;;;;;18.13;8.75;;;;;;;11.12;77.71;102022.00;5033558;28;20388;-68
2021/09/20 05:56:36;;;;;;;19.10;8.32;;;;;;;11.10;77.94;102014.38;5033380;28;20044;-68
2021/09/20 05:59:02;;;;;;;22.13;8.57;;;;;;;11.26;77.55;102019.56;5033402;28;20365;-68
2021/09/20 06:01:28;;;;;;;14.05;8.02;;;;;;;11.41;76.89;102026.69;5033415;28;20033;-68
2021/09/20 06:03:53;;;;;;;13.05;8.43;;;;;;;11.47;76.33;102020.88;5015724;28;20483;-68
2021/09/20 06:06:18;;;;;;;13.23;8.20;;;;;;;11.46;76.39;102020.06;5033415;28;20022;-68
2021/09/20 06:08:44;;;;;;;12.75;7.97;;;;;;;11.52;76.20;102018.59;5033177;28;20025;-68
2021/09/20 06:11:11;;;;;;;18.83;8.30;;;;;;;11.21;77.27;102023.63;5033272;28;20446;-68
2021/09/20 06:13:36;;;;;;;14.32;8.18;;;;;;;11.25;76.95;102017.16;5015378;28;20029;-66
2021/09/20 06:16:01;;;;;;;13.68;8.48;;;;;;;11.36;76.83;102018.59;5033663;28;20483;-68
2021/09/20 06:18:27;;;;;;;13.25;8.20;;;;;;;11.43;76.57;102019.59;5033661;28;20100;-68
2021/09/20 06:20:52;;;;;;;14.82;8.57;;;;;;;11.61;75.91;102024.59;5033214;28;20033;-68
2021/09/20 06:23:17;;;;;;;12.35;7.97;;;;;;;11.67;75.30;102023.94;5015457;28;20024;-68
2021/09/20 06:25:42;;;;;;;21.90;8.48;;;;;;;11.73;75.39;102031.03;5033206;28;20354;-68
2021/09/20 06:28:08;;;;;;;14.63;8.85;;;;;;;11.85;75.35;102028.91;5032959;28;20029;-68
2021/09/20 06:30:33;;;;;;;14.65;8.18;;;;;;;11.95;74.77;102040.75;5032923;28;20075;-68
2021/09/20 06:32:58;;;;;;;18.35;8.70;;;;;;;11.91;75.13;102043.81;5032913;28;20022;-68
2021/09/20 06:35:24;;;;;;;13.02;8.32;;;;;;;12.09;74.24;102041.06;5033103;28;20032;-68
2021/09/20 06:37:49;;;;;;;14.45;8.27;;;;;;;12.24;73.59;102047.16;5032904;28;20101;-67
2021/09/20 06:40:14;;;;;;;14.73;8.35;;;;;;;12.35;72.55;102046.00;5034974;28;20033;-68
2021/09/20 06:42:40;;;;;;;13.75;8.10;;;;;;;11.99;73.83;102050.78;5036827;28;20025;-68
2021/09/20 06:45:06;;;;;;;12.82;8.20;;;;;;;12.19;73.38;102052.84;5037374;28;20021;-68
2021/09/20 06:47:32;;;;;;;16.98;8.25;;;;;;;12.26;73.01;102053.00;5037246;28;20025;-68
2021/09/20 06:49:57;;;;;;;12.52;8.27;;;;;;;12.31;73.10;102062.84;5036818;28;20384;-68
2021/09/20 06:52:22;;;;;;;13.95;8.02;;;;;;;12.45;72.91;102059.56;5036561;28;20169;-68
2021/09/20 06:54:47;;;;;;;17.65;8.40;;;;;;;12.73;72.16;102059.13;5036450;28;20021;-68
2021/09/20 06:57:13;;;;;;;13.50;8.13;;;;;;;12.66;72.22;102061.59;5036582;28;20448;-68
2021/09/20 06:59:38;;;;;;;14.35;7.82;;;;;;;12.61;72.25;102067.28;5036856;28;20025;-68
2021/09/20 07:02:03;;;;;;;14.68;7.95;;;;;;;12.52;72.12;102070.09;5036672;28;20083;-68
2021/09/20 07:04:29;;;;;;;12.43;8.18;;;;;;;12.84;71.98;102069.13;5018779;28;20030;-68
2021/09/20 07:06:55;;;;;;;12.13;8.18;;;;;;;12.98;70.84;102065.81;5036595;28;20103;-68
2021/09/20 07:09:20;;;;;;;14.07;8.40;;;;;;;13.23;70.41;102066.44;5037022;28;20021;-68
2021/09/20 07:11:45;;;;;;;14.02;7.63;;;;;;;13.44;69.26;102065.03;5036483;28;20101;-68
2021/09/20 07:14:11;;;;;;;10.85;7.32;;;;;;;13.59;68.57;102070.28;5036527;28;20453;-68
2021/09/20 07:16:37;;;;;;;11.57;7.47;;;;;;;13.71;68.32;102069.66;5036722;28;20028;-68
2021/09/20 07:22:23;;;;;;;16.30;7.57;;;;;;;19.06;50.88;102066.59;5036443;28;20032;-66
2021/09/20 07:24:49;;;;;;;15.00;6.93;;;;;;;20.77;45.57;102071.34;5036156;28;20463;-67
2021/09/20 07:27:14;;;;;;;19.15;6.93;;;;;;;22.38;43.04;102076.31;5036156;28;20537;-67
2021/09/20 07:29:40;;;;;;;12.48;6.60;;;;;;;22.14;41.80;102067.66;5018423;28;20021;-69
2021/09/20 07:32:05;;;;;;;11.70;6.53;;;;;;;22.78;41.27;102068.34;5036137;28;20079;-67
2021/09/20 07:34:30;;;;;;;10.23;6.18;;;;;;;23.57;39.68;102070.94;5036066;28;20368;-67
2021/09/20 07:36:56;;;;;;;11.77;6.55;;;;;;;22.73;39.45;102069.09;5018245;28;20036;-67
2021/09/20 07:39:21;;;;;;;10.77;6.13;;;;;;;23.19;38.80;102074.34;5036373;28;20025;-67
2021/09/20 07:41:47;;;;;;;8.50;5.78;;;;;;;23.67;37.26;102080.03;5035972;28;20272;-68
2021/09/20 07:44:12;;;;;;;23.73;7.40;;;;;;;23.52;38.16;102068.22;5035960;28;20029;-67
2021/09/20 07:46:38;;;;;;;7.70;5.72;;;;;;;24.27;36.33;102072.09;5018965;28;20484;-68
2021/09/20 07:49:03;;;;;;;10.55;5.65;;;;;;;24.56;36.13;102076.38;5035827;28;20044;-68
2021/09/20 07:51:28;;;;;;;8.13;5.80;;;;;;;25.52;34.22;102081.69;5034832;28;20044;-68
2021/09/20 07:53:54;;;;;;;9.83;5.70;;;;;;;26.18;32.53;102088.34;5036064;28;20272;-68
2021/09/20 07:56:19;;;;;;;7.45;5.65;;;;;;;26.46;31.87;102090.53;5035481;28;20393;-68
2021/09/20 07:58:44;;;;;;;6.70;5.18;;;;;;;26.49;31.49;102100.59;5017897;28;20365;-68
2021/09/20 08:01:10;;;;;;;8.90;5.38;;;;;;;26.92;31.40;102093.25;5035632;28;20542;-68
2021/09/20 08:03:35;;;;;;;9.43;5.30;;;;;;;26.34;30.92;102092.63;5035619;28;20396;-68
2021/09/20 08:06:00;;;;;;;6.47;5.23;;;;;;;26.58;30.88;102100.91;5017778;28;20029;-68
2021/09/20 08:08:26;;;;;;;9.07;5.30;;;;;;;26.04;31.51;102096.78;5035318;28;20350;-68
2021/09/20 08:10:51;;;;;;;9.05;5.35;;;;;;;24.48;33.81;102098.75;5035457;28;20025;-68
2021/09/20 08:13:17;;;;;;;10.27;5.03;;;;;;;24.87;34.27;102111.84;5017306;28;20029;-68
2021/09/20 08:15:44;;;;;;;7.95;5.07;;;;;;;24.80;32.39;102119.97;5035389;28;20029;-68
2021/09/20 08:18:10;;;;;;;7.47;5.22;;;;;;;25.16;31.77;102112.38;5034905;28;20062;-68
2021/09/20 08:20:36;;;;;;;7.82;5.28;;;;;;;24.94;31.88;102123.00;5016467;28;20101;-68
2021/09/20 08:23:02;;;;;;;8.32;5.05;;;;;;;25.63;31.49;102119.56;5016689;28;20043;-67
2021/09/20 08:25:31;;;;;;;7.82;5.03;;;;;;;25.18;32.75;102112.94;5035051;28;20075;-68
2021/09/20 08:27:56;;;;;;;7.57;5.03;;;;;;;25.67;31.76;102115.38;5034838;28;20052;-68
2021/09/20 08:30:22;;;;;;;7.82;5.53;;;;;;;25.43;31.29;102121.06;5034964;28;20029;-70
2021/09/20 08:32:47;;;;;;;7.55;5.18;;;;;;;25.44;31.46;102122.66;5017111;28;20036;-70
2021/09/20 08:35:13;;;;;;;8.32;5.38;;;;;;;26.09;30.02;102123.28;5034851;28;20031;-69
2021/09/20 08:37:38;;;;;;;7.80;5.22;;;;;;;27.07;28.79;102126.94;5017257;28;20485;-70
2021/09/20 08:40:06;;;;;;;8.57;4.88;;;;;;;26.87;28.89;102122.44;5035398;28;20458;-69
2021/09/20 08:42:33;;;;;;;7.32;5.20;;;;;;;27.52;28.33;102132.53;5035279;28;20057;-70
2021/09/20 08:48:20;;;;;;;7.05;5.18;;;;;;;27.82;27.36;102127.16;5034810;28;20500;-69
2021/09/20 08:50:45;;;;;;;7.63;4.97;;;;;;;26.16;29.85;102128.34;5034612;28;20026;-69
2021/09/20 08:53:11;;;;;;;6.10;5.03;;;;;;;26.66;28.92;102134.06;5034524;28;20631;-69
2021/09/20 08:55:37;;;;;;;7.35;5.72;;;;;;;24.85;30.03;102141.16;5034250;28;20357;-68
2021/09/20 08:58:03;;;;;;;7.28;5.47;;;;;;;25.24;30.42;102141.03;5034470;28;20465;-68
2021/09/20 09:00:29;;;;;;;6.70;5.40;;;;;;;23.12;33.44;102140.41;5034433;28;20030;-68
2021/09/20 09:02:54;;;;;;;10.93;6.13;;;;;;;23.29;33.65;102142.25;5034134;28;20530;-68
2021/09/20 09:05:25;;;;;;;9.82;6.15;;;;;;;23.73;33.36;102139.78;5016507;28;20493;-67
2021/09/20 09:07:54;;;;;;;10.93;5.97;;;;;;;25.15;30.78;102145.19;5034625;28;20036;-68
2021/09/20 09:10:23;;;;;;;8.55;6.18;;;;;;;22.84;34.27;102151.72;5034140;28;20026;-68
2021/09/20 09:12:50;;;;;;;9.30;6.57;;;;;;;23.12;34.04;102152.78;5034238;28;20468;-68
2021/09/20 09:15:16;;;;;;;9.38;6.25;;;;;;;23.52;32.63;102165.84;5034280;28;20392;-68
2021/09/20 09:17:44;;;;;;;8.10;6.05;;;;;;;22.92;33.05;102156.63;5016333;28;20526;-68
2021/09/20 09:20:12;;;;;;;8.73;5.93;;;;;;;22.07;35.23;102154.66;5034104;28;20079;-68
2021/09/20 09:22:43;;;;;;;8.80;5.93;;;;;;;21.93;36.20;102155.94;5034050;28;20394;-67
2021/09/20 09:25:18;;;;;;;8.25;5.80;;;;;;;22.12;36.96;102156.59;5034177;28;20057;-68
2021/09/20 09:27:45;;;;;;;14.00;5.90;;;;;;;21.68;37.78;102154.31;5034146;28;20075;-68
2021/09/20 09:30:12;;;;;;;9.82;5.90;;;;;;;20.65;37.65;102148.28;5016201;28;20025;-68
2021/09/20 09:32:39;;;;;;;11.25;6.40;;;;;;;18.84;41.23;102160.41;5033751;28;20029;-67
2021/09/20 09:35:07;;;;;;;8.00;5.70;;;;;;;19.78;40.15;102161.44;5033879;28;20024;-68
2021/09/20 09:37:34;;;;;;;7.07;5.32;;;;;;;20.38;39.84;102160.09;5016109;28;20079;-68
2021/09/20 09:40:09;;;;;;;14.30;5.78;;;;;;;21.42;38.62;102158.19;5033684;28;20033;-68
2021/09/20 09:42:36;;;;;;;7.53;5.53;;;;;;;21.73;36.71;102158.91;5033999;28;20047;-68
2021/09/20 09:45:20;;;;;;;8.52;5.28;;;;;;;21.42;37.09;102163.44;5033477;28;20067;-68
2021/09/20 09:47:51;;;;;;;9.15;5.32;;;;;;;21.55;37.75;102157.97;5033531;28;20472;-68
2021/09/20 09:50:20;;;;;;;7.07;4.97;;;;;;;21.13;36.59;102162.41;5033572;28;20025;-68
2021/09/20 09:52:49;;;;;;;6.35;4.70;;;;;;;20.74;38.66;102159.28;5015607;28;20029;-68
2021/09/20 09:55:14;;;;;;;7.55;4.93;;;;;;;21.04;36.84;102161.13;5033325;28;20124;-68
2021/09/20 09:57:41;;;;;;;6.32;4.57;;;;;;;22.35;35.67;102150.53;5015734;28;20053;-67
2021/09/20 10:00:10;;;;;;;8.55;4.63;;;;;;;21.95;35.09;102152.06;5015609;28;20392;-69
2021/09/20 10:02:38;;;;;;;6.07;4.60;;;;;;;21.90;34.89;102149.31;5033216;28;20369;-68
2021/09/20 10:05:11;;;;;;;6.93;4.70;;;;;;;21.99;34.83;102152.38;5033244;28;20100;-68
2021/09/20 10:07:40;;;;;;;9.25;4.70;;;;;;;22.08;34.45;102148.38;5015076;28;20029;-67
2021/09/20 10:10:16;;;;;;;14.30;4.65;;;;;;;21.52;36.89;102147.91;5033039;28;20025;-68
2021/09/20 10:12:44;;;;;;;6.93;4.30;;;;;;;21.78;36.94;102151.94;5032935;28;20159;-68
2021/09/20 10:15:12;;;;;;;7.15;5.10;;;;;;;21.19;35.48;102156.25;5032982;28;20030;-68
2021/09/20 10:17:38;;;;;;;9.68;4.75;;;;;;;20.25;37.49;102161.03;5033016;28;20032;-68
2021/09/20 10:20:06;;;;;;;7.10;4.55;;;;;;;20.59;37.69;102156.25;5033470;28;20026;-68
2021/09/20 10:22:31;;;;;;;11.05;4.80;;;;;;;20.27;38.35;102151.91;5033215;28;20546;-68
2021/09/20 10:24:59;;;;;;;10.40;4.72;;;;;;;18.22;41.53;102159.16;5033120;28;20022;-68
2021/09/20 10:27:27;;;;;;;9.18;5.07;;;;;;;18.61;42.02;102163.47;5032998;28;20028;-68
2021/09/20 10:30:12;;;;;;;10.07;4.55;;;;;;;20.71;38.90;102157.09;5032821;28;20029;-68
2021/09/20 10:32:41;;;;;;;10.48;5.15;;;;;;;21.15;36.24;102158.53;5032961;28;20366;-68
2021/09/20 10:35:29;;;;;;;5.03;4.18;;;;;;;21.02;37.78;102158.72;5015265;28;20025;-68
2021/09/20 10:38:24;;;;;;;7.93;4.93;;;;;;;20.63;37.74;102152.13;5033477;28;20037;-68
2021/09/20 10:41:11;;;;;;;7.53;4.80;;;;;;;20.58;38.64;102158.06;5033012;28;20101;-68
2021/09/20 10:43:59;;;;;;;8.60;4.93;;;;;;;20.34;39.48;102156.28;5032898;28;20100;-67
2021/09/20 10:46:28;;;;;;;7.07;4.90;;;;;;;21.47;37.21;102158.31;5020234;28;20134;-68
2021/09/20 10:48:55;;;;;;;6.30;4.65;;;;;;;21.32;36.37;102157.88;5033684;28;20029;-68
2021/09/20 10:51:30;;;;;;;9.57;4.40;;;;;;;21.51;37.88;102159.44;5015236;28;20476;-68
2021/09/20 10:54:14;;;;;;;5.40;4.60;;;;;;;20.57;37.58;102156.47;5032706;28;20033;-68
2021/09/20 10:56:40;;;;;;;6.45;4.55;;;;;;;21.42;36.63;102162.63;5032223;28;20488;-68
2021/09/20 10:59:07;;;;;;;9.98;5.10;;;;;;;21.89;34.69;102157.41;5032712;28;20030;-68
2021/09/20 11:01:34;;;;;;;8.43;4.28;;;;;;;21.75;35.39;102169.97;5032812;28;20033;-68
2021/09/20 11:04:05;;;;;;;7.72;4.32;;;;;;;21.46;35.23;102169.03;5032477;28;20080;-67
2021/09/20 11:06:31;;;;;;;7.05;4.85;;;;;;;21.28;37.05;102169.88;5032610;28;20026;-67
2021/09/20 11:08:59;;;;;;;7.03;4.43;;;;;;;20.54;37.54;102170.00;5032648;28;20036;-67
2021/09/20 11:14:08;;;;;;;8.20;4.30;;;;;;;21.01;36.95;102174.72;5032832;28;20026;-67
2021/09/20 11:16:55;;;;;;;5.88;4.63;;;;;;;19.65;38.45;102177.31;5032414;28;20052;-68
2021/09/20 11:19:29;;;;;;;8.95;4.30;;;;;;;20.05;38.91;102174.34;5032596;28;20033;-68
2021/09/20 11:25:17;;;;;;;7.55;4.63;;;;;;;19.75;39.19;102184.69;5032711;28;20563;-68
2021/09/20 11:27:45;;;;;;;5.80;4.30;;;;;;;20.12;40.67;102185.59;5034560;28;20096;-67
2021/09/20 11:30:15;;;;;;;6.50;4.60;;;;;;;20.36;39.18;102185.75;5036962;28;20021;-68
2021/09/20 11:32:52;;;;;;;7.18;4.50;;;;;;;19.69;41.23;102194.22;5036169;28;20049;-68
2021/09/20 11:35:18;;;;;;;6.00;4.80;;;;;;;19.64;39.53;102188.78;5036461;28;20041;-69